Time;durP1;ratioP1;P1;durP2;ratioP2;P2;SDS_P1;SDS_P2;PMS_P1;PMS_P2;Temp;Humidity;BMP_temperature;BMP_pressure;BME280_temperature;BME280_humidity;BME280_pressure;Samples;Min_cycle;Max_cycle;Signal;HPM_P1;HPM_P2
2021/10/08 00:01:52;;;;;;;10.65;4.45;;;;;;;12.24;100.00;97561.41;5022105;28;20612;-63
2021/10/08 00:04:19;;;;;;;7.13;4.75;;;;;;;12.85;100.00;97634.38;5021853;28;21166;-62
2021/10/08 00:06:45;;;;;;;10.10;5.07;;;;;;;12.76;100.00;97636.59;5024237;28;20423;-62
2021/10/08 00:09:12;;;;;;;8.85;4.68;;;;;;;12.40;100.00;97569.63;5022253;28;20137;-62
2021/10/08 00:11:39;;;;;;;10.00;4.22;;;;;;;12.61;100.00;97615.31;5023637;28;20456;-62
2021/10/08 00:14:06;;;;;;;6.10;3.63;;;;;;;12.80;100.00;97623.59;5023659;28;20056;-62
2021/10/08 00:16:33;;;;;;;4.72;3.80;;;;;;;12.75;100.00;97618.34;5021935;28;20487;-62
2021/10/08 00:19:01;;;;;;;8.40;3.80;;;;;;;12.81;100.00;97636.31;5021803;28;20077;-62
2021/10/08 00:21:27;;;;;;;4.63;3.70;;;;;;;12.80;100.00;97640.28;5022866;28;20429;-61
2021/10/08 00:23:54;;;;;;;6.43;3.88;;;;;;;12.33;100.00;97542.50;5023456;28;20053;-62
2021/10/08 00:26:21;;;;;;;4.90;3.20;;;;;;;12.77;100.00;97618.75;5021884;28;20520;-62
2021/10/08 00:28:48;;;;;;;8.05;3.85;;;;;;;12.38;100.00;97545.00;5021738;28;20053;-62
2021/10/08 00:31:14;;;;;;;4.75;3.47;;;;;;;12.81;100.00;97614.06;5022876;28;20046;-62
2021/10/08 00:33:41;;;;;;;6.70;4.25;;;;;;;12.20;100.00;97527.22;5021767;28;20057;-61
2021/10/08 00:36:08;;;;;;;8.52;4.38;;;;;;;12.85;100.00;97609.34;5021747;28;20077;-63
2021/10/08 00:38:35;;;;;;;5.00;3.40;;;;;;;12.83;100.00;97611.72;5021807;28;20064;-62
2021/10/08 00:41:02;;;;;;;6.38;4.05;;;;;;;12.50;100.00;97578.19;5023075;28;20068;-62
2021/10/08 00:43:28;;;;;;;8.40;4.28;;;;;;;12.85;100.00;97612.13;5022102;28;20103;-63
2021/10/08 00:45:55;;;;;;;12.70;4.10;;;;;;;12.87;100.00;97612.56;5023240;28;20081;-64
2021/10/08 00:48:22;;;;;;;10.00;4.63;;;;;;;12.88;100.00;97608.59;5023361;28;20060;-62
2021/10/08 00:50:50;;;;;;;9.82;4.57;;;;;;;12.82;100.00;97610.09;5022992;28;20053;-63
2021/10/08 00:53:18;;;;;;;6.50;4.15;;;;;;;12.82;100.00;97603.75;5021758;28;20057;-62
2021/10/08 00:55:47;;;;;;;5.45;4.05;;;;;;;12.85;100.00;97598.22;5021457;28;20056;-62
2021/10/08 00:58:16;;;;;;;7.85;4.53;;;;;;;12.92;100.00;97595.59;5021743;28;20057;-62
2021/10/08 01:00:46;;;;;;;6.03;3.92;;;;;;;12.97;100.00;97600.84;5021315;28;20053;-62
2021/10/08 01:03:13;;;;;;;10.77;4.18;;;;;;;12.90;100.00;97597.91;5022537;28;20462;-62
2021/10/08 01:05:41;;;;;;;9.48;4.03;;;;;;;12.91;100.00;97596.75;5025444;28;20049;-63
2021/10/08 01:08:10;;;;;;;7.32;4.00;;;;;;;12.98;100.00;97599.66;5027006;28;20049;-62
2021/10/08 01:10:38;;;;;;;8.00;4.63;;;;;;;12.98;100.00;97607.19;5026366;28;20057;-62
2021/10/08 01:13:08;;;;;;;5.60;3.85;;;;;;;13.02;100.00;97592.22;5026330;28;20053;-61
2021/10/08 01:15:35;;;;;;;4.15;3.38;;;;;;;13.08;100.00;97596.28;5024856;28;20080;-62
2021/10/08 01:18:03;;;;;;;9.20;3.53;;;;;;;13.09;100.00;97591.50;5026428;28;20093;-62
2021/10/08 01:20:30;;;;;;;6.82;3.55;;;;;;;13.05;100.00;97585.09;5025190;28;20045;-63
2021/10/08 01:22:58;;;;;;;7.07;3.88;;;;;;;13.11;100.00;97578.03;5026790;28;20068;-63
2021/10/08 01:25:26;;;;;;;5.18;4.05;;;;;;;12.75;100.00;97548.00;5024536;28;20057;-62
2021/10/08 01:27:54;;;;;;;7.18;3.72;;;;;;;12.73;100.00;97562.28;5026483;28;20057;-63
2021/10/08 01:30:22;;;;;;;9.02;3.80;;;;;;;12.98;100.00;97591.31;5025840;28;20072;-62
2021/10/08 01:32:49;;;;;;;10.27;3.78;;;;;;;12.99;100.00;97589.34;5024797;28;20088;-62
2021/10/08 01:35:17;;;;;;;4.78;3.97;;;;;;;12.91;100.00;97584.84;5026104;28;20049;-62
2021/10/08 01:37:45;;;;;;;8.52;4.60;;;;;;;12.68;100.00;97554.25;5024697;28;20068;-61
2021/10/08 01:40:14;;;;;;;10.27;3.67;;;;;;;12.83;100.00;97570.00;5026005;28;20516;-62
2021/10/08 01:42:42;;;;;;;7.75;3.30;;;;;;;12.55;100.00;97513.16;5024745;28;20060;-62
2021/10/08 01:45:11;;;;;;;4.18;3.33;;;;;;;12.81;100.00;97583.47;5024197;28;20094;-63
2021/10/08 01:47:37;;;;;;;4.20;3.50;;;;;;;12.74;100.00;97580.56;5024718;28;20435;-63
2021/10/08 01:50:06;;;;;;;10.07;4.40;;;;;;;12.58;100.00;97560.47;5024194;28;20053;-61
2021/10/08 01:52:33;;;;;;;6.28;3.97;;;;;;;12.72;100.00;97571.00;5025820;28;20587;-62
2021/10/08 01:54:59;;;;;;;6.70;3.70;;;;;;;12.17;100.00;97508.53;5024184;28;20049;-61
2021/10/08 01:57:26;;;;;;;6.38;4.40;;;;;;;12.43;100.00;97541.09;5025690;28;20064;-63
2021/10/08 01:59:53;;;;;;;8.38;5.03;;;;;;;12.69;100.00;97572.56;5026072;28;20049;-62
2021/10/08 02:02:20;;;;;;;9.23;5.03;;;;;;;12.78;100.00;97581.44;5025525;28;20060;-61
2021/10/08 02:04:47;;;;;;;10.18;4.60;;;;;;;12.76;100.00;97578.22;5023958;28;20057;-62
2021/10/08 02:07:14;;;;;;;7.25;4.30;;;;;;;12.75;100.00;97578.59;5025533;28;20049;-63
2021/10/08 02:09:42;;;;;;;6.82;4.47;;;;;;;12.12;100.00;97489.38;5024091;28;20057;-63
2021/10/08 02:12:10;;;;;;;6.57;3.47;;;;;;;12.72;100.00;97571.81;5023981;28;20060;-62
2021/10/08 02:14:37;;;;;;;5.68;3.58;;;;;;;12.65;100.00;97559.75;5024928;28;20390;-64
2021/10/08 02:17:04;;;;;;;4.68;3.50;;;;;;;12.71;100.00;97567.41;5023233;28;20068;-63
2021/10/08 02:19:31;;;;;;;7.93;4.00;;;;;;;12.68;100.00;97561.78;5025517;28;20064;-61
2021/10/08 02:21:58;;;;;;;9.35;5.05;;;;;;;12.53;100.00;97546.88;5025592;28;20053;-61
2021/10/08 02:24:25;;;;;;;9.18;5.15;;;;;;;12.38;100.00;97536.66;5023379;28;20067;-62
2021/10/08 02:26:52;;;;;;;8.13;5.28;;;;;;;12.67;100.00;97558.22;5025334;28;20140;-62
2021/10/08 02:29:18;;;;;;;8.45;5.00;;;;;;;12.37;100.00;97518.41;5025505;28;20060;-62
2021/10/08 02:31:45;;;;;;;8.13;4.38;;;;;;;12.02;100.00;97470.53;5025162;28;20049;-61
2021/10/08 02:34:12;;;;;;;8.70;4.40;;;;;;;12.58;100.00;97571.56;5025744;28;20503;-63
2021/10/08 02:36:39;;;;;;;6.85;4.05;;;;;;;12.64;100.00;97564.53;5023957;28;20063;-61
2021/10/08 02:39:05;;;;;;;6.03;3.45;;;;;;;12.23;100.00;97499.47;5025440;28;20515;-63
2021/10/08 02:41:32;;;;;;;4.25;3.08;;;;;;;12.25;100.00;97495.56;5024930;28;20064;-61
2021/10/08 02:43:59;;;;;;;5.10;3.45;;;;;;;12.65;100.00;97570.88;5023370;28;20428;-63
2021/10/08 02:46:26;;;;;;;8.27;3.00;;;;;;;12.15;100.00;97508.06;5023473;28;20054;-64
2021/10/08 02:48:53;;;;;;;4.93;3.20;;;;;;;12.57;100.00;97564.38;5023100;28;20191;-63
2021/10/08 02:51:19;;;;;;;4.95;3.17;;;;;;;11.95;100.00;97476.75;5024542;28;20523;-62
2021/10/08 02:53:46;;;;;;;3.67;3.08;;;;;;;12.52;100.00;97564.69;5024835;28;20068;-62
2021/10/08 02:56:13;;;;;;;5.95;3.60;;;;;;;10.33;100.00;97212.16;5024569;28;20467;-61
2021/10/08 02:58:40;;;;;;;4.22;3.47;;;;;;;12.53;100.00;97574.66;5024402;28;20550;-61
2021/10/08 03:01:07;;;;;;;4.68;3.10;;;;;;;12.54;100.00;97570.69;5024545;28;20069;-62
2021/10/08 03:03:33;;;;;;;4.55;2.97;;;;;;;12.49;100.00;97573.78;5024431;28;20053;-62
2021/10/08 03:06:00;;;;;;;5.25;2.92;;;;;;;12.50;100.00;97569.84;5022650;28;20045;-61
2021/10/08 03:08:27;;;;;;;5.05;2.90;;;;;;;12.50;100.00;97569.03;5024422;28;20492;-62
2021/10/08 03:10:54;;;;;;;4.03;2.63;;;;;;;12.45;100.00;97561.81;5024724;28;20156;-61
2021/10/08 03:13:21;;;;;;;3.88;3.00;;;;;;;12.49;100.00;97573.00;5024409;28;20497;-62
2021/10/08 03:15:47;;;;;;;3.65;3.03;;;;;;;12.48;100.00;97580.50;5023965;28;20049;-63
2021/10/08 03:18:14;;;;;;;7.75;3.42;;;;;;;11.95;100.00;97504.53;5024021;28;20867;-61
2021/10/08 03:20:41;;;;;;;4.10;3.05;;;;;;;12.42;100.00;97579.22;5023570;28;20045;-61
2021/10/08 03:23:08;;;;;;;6.72;4.90;;;;;;;12.34;100.00;97560.81;5022927;28;20061;-62
2021/10/08 03:25:34;;;;;;;7.75;3.92;;;;;;;12.06;100.00;97515.84;5022159;28;20061;-61
2021/10/08 03:28:01;;;;;;;10.05;3.75;;;;;;;12.38;100.00;97553.31;5024185;28;20056;-62
2021/10/08 03:30:29;;;;;;;8.45;4.15;;;;;;;12.17;100.00;97530.75;5023758;28;20448;-63
2021/10/08 03:32:56;;;;;;;7.97;4.68;;;;;;;12.27;100.00;97554.28;5023831;28;20156;-61
2021/10/08 03:35:23;;;;;;;7.20;5.20;;;;;;;11.92;100.00;97499.72;5023727;28;20053;-61
2021/10/08 03:37:56;;;;;;;5.32;4.15;;;;;;;11.78;100.00;97480.00;5023915;28;20053;-62
2021/10/08 03:40:29;;;;;;;9.85;4.72;;;;;;;12.24;100.00;97561.41;5022593;28;20068;-61
2021/10/08 03:42:59;;;;;;;11.95;5.63;;;;;;;11.69;100.00;97523.03;5023705;28;20049;-61
2021/10/08 03:45:31;;;;;;;23.23;6.28;;;;;;;11.15;100.00;97484.22;5022194;28;20057;-61
2021/10/08 03:50:31;;;;;;;7.85;3.88;;;;;;;12.09;100.00;97576.19;5023761;28;20049;-61
2021/10/08 03:52:58;;;;;;;6.57;4.10;;;;;;;11.98;100.00;97561.31;5023993;28;20515;-61
2021/10/08 03:55:25;;;;;;;5.50;4.22;;;;;;;12.09;100.00;97576.19;5022178;28;20057;-61
2021/10/08 03:57:52;;;;;;;6.07;4.45;;;;;;;11.04;100.00;97408.34;5023560;28;20064;-62
2021/10/08 04:00:18;;;;;;;5.30;3.50;;;;;;;12.16;100.00;97588.25;5023452;28;20344;-61
2021/10/08 04:02:45;;;;;;;4.15;3.17;;;;;;;12.24;100.00;97594.75;5023164;28;20057;-63
2021/10/08 04:05:12;;;;;;;3.40;2.47;;;;;;;12.24;100.00;97600.28;5024060;28;20053;-62
2021/10/08 04:07:38;;;;;;;4.35;2.67;;;;;;;11.65;100.00;97528.50;5023858;28;20057;-62
2021/10/08 04:10:05;;;;;;;4.25;2.88;;;;;;;12.22;100.00;97599.84;5023399;28;20049;-62
2021/10/08 04:12:32;;;;;;;4.63;3.50;;;;;;;12.20;100.00;97599.44;5024214;28;20520;-62
2021/10/08 04:14:59;;;;;;;8.98;3.55;;;;;;;11.48;100.00;97467.06;5023355;28;20054;-63
2021/10/08 04:17:25;;;;;;;6.97;3.45;;;;;;;12.32;100.00;97596.47;5023132;28;20041;-62
2021/10/08 04:19:52;;;;;;;5.82;3.30;;;;;;;12.08;100.00;97552.38;5021934;28;20061;-62
2021/10/08 04:22:19;;;;;;;4.30;3.20;;;;;;;12.34;100.00;97596.13;5023517;28;20060;-63
2021/10/08 04:24:46;;;;;;;4.25;3.08;;;;;;;12.32;100.00;97602.03;5022099;28;20516;-62
2021/10/08 04:27:12;;;;;;;5.53;3.15;;;;;;;12.37;100.00;97593.41;5023258;28;20057;-61
2021/10/08 04:29:39;;;;;;;5.55;4.07;;;;;;;12.39;100.00;97595.81;5023439;28;20061;-62
2021/10/08 04:32:06;;;;;;;7.70;3.45;;;;;;;12.02;100.00;97562.97;5021853;28;20454;-62
2021/10/08 04:34:33;;;;;;;7.72;4.18;;;;;;;12.16;100.00;97570.78;5023513;28;20064;-62
2021/10/08 04:37:00;;;;;;;9.07;5.03;;;;;;;12.09;100.00;97570.66;5023310;28;20555;-62
2021/10/08 04:39:26;;;;;;;6.25;4.60;;;;;;;12.48;100.00;97599.97;5024298;28;20060;-61
2021/10/08 04:41:53;;;;;;;5.72;3.47;;;;;;;12.25;100.00;97590.78;5027345;28;20289;-61
2021/10/08 04:44:20;;;;;;;5.95;3.92;;;;;;;12.01;100.00;97580.00;5027302;28;20053;-61
2021/10/08 04:46:47;;;;;;;21.13;6.57;;;;;;;11.72;100.00;97511.19;5025200;28;20510;-62
2021/10/08 04:49:13;;;;;;;34.35;8.93;;;;;;;11.89;100.00;97577.38;5027184;28;20046;-63
2021/10/08 04:51:40;;;;;;;29.58;7.65;;;;;;;12.14;100.00;97587.81;5025423;28;20049;-61
2021/10/08 04:54:07;;;;;;;22.02;8.57;;;;;;;11.55;100.00;97492.19;5027180;28;20050;-62
2021/10/08 04:56:35;;;;;;;12.18;5.93;;;;;;;12.36;100.00;97594.56;5026894;28;20064;-62
2021/10/08 04:59:02;;;;;;;12.30;5.28;;;;;;;12.40;100.00;97598.22;5024922;28;20049;-61
2021/10/08 05:01:29;;;;;;;7.57;4.63;;;;;;;11.97;100.00;97556.91;5025245;28;20063;-60
2021/10/08 05:03:56;;;;;;;5.88;4.10;;;;;;;12.06;100.00;97549.16;5025664;28;20073;-61
2021/10/08 05:06:22;;;;;;;5.97;4.05;;;;;;;12.50;100.00;97619.03;5025072;28;20478;-61
2021/10/08 05:08:49;;;;;;;12.30;5.68;;;;;;;12.66;100.00;97622.53;5026446;28;20702;-61
2021/10/08 05:11:16;;;;;;;12.68;6.68;;;;;;;12.67;100.00;97624.94;5027086;28;20072;-61
2021/10/08 05:13:43;;;;;;;8.50;6.40;;;;;;;12.71;100.00;97620.22;5025496;28;20561;-60
2021/10/08 05:16:10;;;;;;;14.75;6.78;;;;;;;12.30;100.00;97559.94;5025097;28;20509;-63
2021/10/08 05:18:38;;;;;;;13.43;6.22;;;;;;;10.83;100.00;97323.97;5026925;28;20172;-61
2021/10/08 05:21:07;;;;;;;10.10;4.55;;;;;;;12.70;100.00;97615.84;5026666;28;20088;-62
2021/10/08 05:23:34;;;;;;;6.50;3.45;;;;;;;12.16;100.00;97560.47;5026239;28;20448;-62
2021/10/08 05:26:02;;;;;;;9.57;5.70;;;;;;;12.61;100.00;97626.41;5026558;28;20053;-61
2021/10/08 05:28:28;;;;;;;10.65;5.93;;;;;;;12.46;100.00;97602.31;5026834;28;20243;-61
2021/10/08 05:30:56;;;;;;;11.05;5.93;;;;;;;12.47;100.00;97614.22;5024919;28;20055;-61
2021/10/08 05:33:23;;;;;;;6.30;4.65;;;;;;;12.30;100.00;97623.81;5026585;28;20496;-62
2021/10/08 05:35:50;;;;;;;4.45;3.20;;;;;;;12.21;100.00;97606.59;5025118;28;20049;-61
2021/10/08 05:38:17;;;;;;;4.85;3.97;;;;;;;12.37;100.00;97621.19;5025079;28;20063;-61
2021/10/08 05:40:47;;;;;;;24.58;9.10;;;;;;;12.34;100.00;97610.00;5025849;28;20574;-61
2021/10/08 05:43:15;;;;;;;17.95;5.78;;;;;;;11.47;100.00;97515.41;5026213;28;20049;-61
2021/10/08 05:45:41;;;;;;;12.85;4.65;;;;;;;12.09;100.00;97596.44;5025866;28;20053;-61
2021/10/08 05:48:08;;;;;;;14.50;5.10;;;;;;;11.95;100.00;97600.88;5026234;28;20087;-61
2021/10/08 05:50:36;;;;;;;21.58;6.55;;;;;;;11.50;100.00;97498.03;5024293;28;20064;-62
2021/10/08 05:53:06;;;;;;;15.77;5.97;;;;;;;12.20;100.00;97582.78;5025979;28;20049;-62
2021/10/08 05:55:33;;;;;;;7.05;3.10;;;;;;;11.76;100.00;97556.50;5025760;28;20064;-62
2021/10/08 05:58:00;;;;;;;22.00;6.63;;;;;;;11.94;100.00;97590.97;5026103;28;20064;-61
2021/10/08 06:00:27;;;;;;;11.68;4.70;;;;;;;12.26;100.00;97609.06;5024291;28;20058;-62
2021/10/08 06:02:54;;;;;;;7.55;3.70;;;;;;;12.45;100.00;97622.94;5025925;28;20115;-61
2021/10/08 06:05:21;;;;;;;6.93;4.15;;;;;;;12.49;100.00;97617.44;5025508;28;20448;-61
2021/10/08 06:07:48;;;;;;;7.00;3.60;;;;;;;12.56;100.00;97618.38;5025492;28;20144;-61
2021/10/08 06:10:15;;;;;;;2.97;2.67;;;;;;;12.66;100.00;97628.88;5025467;28;20076;-61
2021/10/08 06:12:42;;;;;;;6.40;2.80;;;;;;;12.70;100.00;97635.31;5023737;28;20060;-61
2021/10/08 06:15:09;;;;;;;5.22;2.70;;;;;;;12.47;100.00;97580.88;5025710;28;20054;-61
2021/10/08 06:17:36;;;;;;;5.80;4.30;;;;;;;12.62;100.00;97594.66;5025311;28;20053;-62
2021/10/08 06:20:04;;;;;;;7.38;4.20;;;;;;;9.79;100.00;97175.38;5023641;28;20049;-61
2021/10/08 06:22:31;;;;;;;5.18;3.55;;;;;;;12.47;100.00;97595.56;5025440;28;20060;-61
2021/10/08 06:24:58;;;;;;;7.25;3.88;;;;;;;12.78;100.00;97625.94;5023313;28;20057;-61
2021/10/08 06:27:25;;;;;;;6.53;3.72;;;;;;;12.90;100.00;97617.38;5023271;28;20057;-62
2021/10/08 06:29:51;;;;;;;4.25;3.35;;;;;;;12.98;100.00;97612.75;5024895;28;20053;-61
2021/10/08 06:32:18;;;;;;;6.32;3.97;;;;;;;12.94;100.00;97596.03;5025130;28;20062;-61
2021/10/08 06:34:45;;;;;;;3.22;2.70;;;;;;;13.02;100.00;97603.34;5025660;28;20057;-61
2021/10/08 06:37:12;;;;;;;6.40;2.67;;;;;;;13.13;100.00;97601.53;5023824;28;20057;-61
2021/10/08 06:39:39;;;;;;;4.78;3.58;;;;;;;12.86;99.93;97566.50;5024737;28;20049;-62
2021/10/08 06:42:06;;;;;;;4.20;2.70;;;;;;;12.70;98.51;97539.97;5023536;28;20041;-62
2021/10/08 06:44:32;;;;;;;4.90;2.78;;;;;;;12.90;98.21;97584.03;5018195;28;20499;-61
2021/10/08 06:46:59;;;;;;;3.55;2.92;;;;;;;12.63;99.07;97495.41;4982503;28;20512;-63
2021/10/08 06:49:26;;;;;;;4.22;2.30;;;;;;;13.34;97.32;97603.84;5024508;28;20059;-61
2021/10/08 06:51:53;;;;;;;3.95;2.60;;;;;;;13.30;97.98;97598.22;5024843;28;20057;-63
2021/10/08 06:54:19;;;;;;;4.20;2.97;;;;;;;13.24;98.16;97666.50;5024000;28;20046;-62
2021/10/08 06:56:47;;;;;;;4.03;2.92;;;;;;;12.95;96.00;97560.66;5025675;28;20053;-61
2021/10/08 06:59:13;;;;;;;3.08;2.55;;;;;;;12.38;95.90;97461.66;5025476;28;20508;-63
2021/10/08 07:01:40;;;;;;;2.50;2.30;;;;;;;13.01;96.56;97593.38;5023231;28;20052;-64
2021/10/08 07:04:07;;;;;;;4.38;3.03;;;;;;;12.33;97.30;97453.63;5023661;28;20164;-68
2021/10/08 07:06:34;;;;;;;5.53;2.80;;;;;;;13.38;98.05;97599.94;5025408;28;20056;-63
2021/10/08 07:09:00;;;;;;;6.38;3.00;;;;;;;13.40;98.04;97597.56;5025103;28;20049;-66
2021/10/08 07:11:27;;;;;;;4.85;4.00;;;;;;;11.33;95.87;97282.16;5025010;28;20697;-62
2021/10/08 07:13:54;;;;;;;3.72;2.78;;;;;;;10.15;97.11;97183.28;5025176;28;20432;-62
2021/10/08 07:16:21;;;;;;;4.78;3.45;;;;;;;13.07;96.42;97577.97;5025036;28;20072;-61
2021/10/08 07:18:53;;;;;;;9.40;4.68;;;;;;;13.24;96.80;97621.16;5024565;28;20053;-64
2021/10/08 07:21:20;;;;;;;5.30;3.83;;;;;;;13.22;98.47;97618.75;5023894;28;20053;-61
2021/10/08 07:23:47;;;;;;;2.50;1.90;;;;;;;12.50;95.02;97511.50;5025029;28;20439;-59
2021/10/08 07:26:18;;;;;;;5.60;2.65;;;;;;;13.31;96.79;97629.59;5025335;28;20045;-63
2021/10/08 07:28:45;;;;;;;4.10;2.60;;;;;;;13.08;95.61;97606.59;5022836;28;20049;-62
2021/10/08 07:31:11;;;;;;;5.35;2.67;;;;;;;12.40;96.08;97509.31;5031372;28;20045;-62
2021/10/08 07:33:41;;;;;;;2.92;2.30;;;;;;;13.13;94.34;97634.09;5044486;28;20052;-65
2021/10/08 07:36:08;;;;;;;5.03;2.33;;;;;;;13.02;97.00;97636.72;5024798;28;20244;-59
2021/10/08 07:38:35;;;;;;;5.15;2.45;;;;;;;13.02;98.08;97639.50;5022890;28;20057;-63
2021/10/08 07:41:02;;;;;;;5.55;2.97;;;;;;;12.64;98.21;97564.53;5023429;28;20037;-62
2021/10/08 07:43:28;;;;;;;6.25;4.13;;;;;;;12.78;99.26;97598.13;5034375;28;20507;-63
2021/10/08 07:45:55;;;;;;;5.55;3.65;;;;;;;13.27;97.02;97626.78;5021899;28;20053;-60
2021/10/08 07:48:22;;;;;;;3.92;3.20;;;;;;;13.33;96.41;97630.03;5022881;28;20489;-61
2021/10/08 07:50:49;;;;;;;5.10;3.05;;;;;;;13.23;97.85;97617.56;5021382;28;20057;-63
2021/10/08 07:53:15;;;;;;;5.13;2.10;;;;;;;13.33;95.60;97614.16;5022210;28;20053;-62
2021/10/08 07:55:42;;;;;;;4.65;2.58;;;;;;;12.65;92.93;97513.31;5022090;28;20056;-68
2021/10/08 07:58:09;;;;;;;6.15;3.20;;;;;;;13.50;93.15;97608.06;5023902;28;20159;-64
2021/10/08 08:00:36;;;;;;;4.88;2.97;;;;;;;13.44;96.10;97617.91;5023292;28;20604;-62
2021/10/08 08:03:02;;;;;;;3.20;2.53;;;;;;;12.67;95.22;97497.06;5022248;28;20049;-63
2021/10/08 08:05:30;;;;;;;3.85;2.75;;;;;;;13.33;96.29;97575.19;5022114;28;20049;-63
2021/10/08 08:07:57;;;;;;;7.80;4.22;;;;;;;13.11;95.90;97553.81;5022402;28;20614;-65
2021/10/08 08:10:24;;;;;;;6.20;3.70;;;;;;;12.89;94.89;97501.78;5023166;28;20052;-65
2021/10/08 08:12:51;;;;;;;15.13;5.22;;;;;;;13.58;96.06;97618.09;5022294;28;20065;-65
2021/10/08 08:15:18;;;;;;;10.77;3.88;;;;;;;13.20;94.08;97520.94;5025520;28;20053;-62
2021/10/08 08:17:45;;;;;;;9.85;4.32;;;;;;;13.76;93.60;97614.75;5028042;28;20061;-65
2021/10/08 08:20:12;;;;;;;16.50;5.63;;;;;;;13.67;95.60;97613.06;5024922;28;20608;-64
2021/10/08 08:22:39;;;;;;;11.25;3.85;;;;;;;13.55;95.60;97621.66;5028410;28;20128;-60
2021/10/08 08:25:07;;;;;;;6.07;3.10;;;;;;;13.15;96.07;97585.25;5024886;28;20053;-62
2021/10/08 08:27:34;;;;;;;5.03;2.60;;;;;;;13.20;97.69;97584.94;5026197;28;20057;-63
2021/10/08 08:30:04;;;;;;;3.30;2.50;;;;;;;13.36;95.81;97641.22;5025869;28;20164;-63
2021/10/08 08:32:32;;;;;;;6.40;2.90;;;;;;;13.15;96.24;97607.50;5026151;28;20315;-63
2021/10/08 08:35:00;;;;;;;3.75;2.50;;;;;;;13.14;96.62;97583.66;5024779;28;20566;-62
2021/10/08 08:37:27;;;;;;;2.70;2.47;;;;;;;12.53;96.70;97491.28;5027264;28;20054;-65
2021/10/08 08:39:53;;;;;;;3.83;2.65;;;;;;;13.31;95.87;97588.69;5026907;28;20057;-63
2021/10/08 08:42:21;;;;;;;6.72;2.83;;;;;;;12.63;94.63;97479.53;5025587;28;20046;-61
2021/10/08 08:44:48;;;;;;;5.88;3.20;;;;;;;13.51;95.68;97623.56;5025891;28;20061;-62
2021/10/08 08:47:18;;;;;;;4.88;2.08;;;;;;;13.20;91.71;97587.72;5027106;28;20441;-65
2021/10/08 08:49:46;;;;;;;2.75;2.15;;;;;;;13.60;93.98;97624.13;5025814;28;20523;-66
2021/10/08 08:52:14;;;;;;;2.30;2.08;;;;;;;13.29;93.17;97591.03;5025024;28;20061;-62
2021/10/08 08:54:41;;;;;;;4.35;2.40;;;;;;;13.51;94.49;97600.50;5025352;28;20056;-63
2021/10/08 08:57:13;;;;;;;4.03;2.80;;;;;;;13.41;94.33;97560.22;5026719;28;20061;-63
2021/10/08 08:59:59;;;;;;;3.70;2.90;;;;;;;13.72;94.38;97591.66;5023010;28;20594;-63
2021/10/08 09:02:28;;;;;;;3.15;2.75;;;;;;;13.97;91.83;97634.56;5026150;28;20067;-64
2021/10/08 09:04:55;;;;;;;3.95;3.20;;;;;;;14.04;92.00;97634.63;5026095;28;20053;-62
2021/10/08 09:07:29;;;;;;;3.50;2.90;;;;;;;14.03;89.74;97635.81;5026798;28;20057;-72
2021/10/08 09:10:08;;;;;;;3.35;2.90;;;;;;;14.05;91.36;97634.28;5025535;28;20068;-61
2021/10/08 09:12:37;;;;;;;3.70;2.55;;;;;;;13.54;89.98;97558.81;5021664;28;20103;-62
2021/10/08 09:15:04;;;;;;;6.38;4.28;;;;;;;14.23;90.74;97628.91;5022759;28;20512;-65
2021/10/08 09:17:31;;;;;;;7.93;3.13;;;;;;;14.35;88.97;97625.91;5022662;28;20049;-60
2021/10/08 09:20:01;;;;;;;2.58;2.13;;;;;;;14.37;88.45;97629.91;5025814;28;20049;-61
2021/10/08 09:22:32;;;;;;;2.38;2.17;;;;;;;14.51;87.16;97629.28;5015330;28;20045;-63
2021/10/08 09:25:18;;;;;;;4.45;2.88;;;;;;;14.27;86.42;97585.22;5024628;28;20412;-62
2021/10/08 09:27:53;;;;;;;4.57;2.90;;;;;;;14.36;84.37;97606.03;5016876;28;20614;-66
2021/10/08 09:30:25;;;;;;;3.88;2.38;;;;;;;13.63;85.43;97512.00;5024200;28;20045;-62
2021/10/08 09:32:55;;;;;;;3.17;2.63;;;;;;;14.14;87.19;97647.91;5023657;28;20054;-62
2021/10/08 09:35:25;;;;;;;3.58;2.58;;;;;;;13.42;87.89;97544.34;5023831;28;20140;-63
2021/10/08 09:38:07;;;;;;;5.03;3.25;;;;;;;13.74;88.25;97611.56;5021300;28;20052;-61
2021/10/08 09:40:42;;;;;;;3.97;3.25;;;;;;;13.81;90.12;97614.44;5020265;28;20077;-65
2021/10/08 09:43:12;;;;;;;4.53;2.70;;;;;;;13.43;90.06;97518.91;5018767;28;20308;-62
2021/10/08 09:45:43;;;;;;;5.80;3.57;;;;;;;14.09;89.44;97642.66;5029647;28;20056;-69
2021/10/08 09:48:11;;;;;;;2.95;2.53;;;;;;;14.03;90.87;97638.59;5024347;28;20064;-69
2021/10/08 09:50:56;;;;;;;2.88;2.40;;;;;;;13.60;93.71;97599.06;5024277;28;20545;-67
2021/10/08 09:53:23;;;;;;;7.93;4.05;;;;;;;13.94;92.38;97635.31;5026025;28;20062;-66
2021/10/08 09:55:52;;;;;;;5.47;3.63;;;;;;;13.41;92.63;97576.09;5025157;28;20460;-68
2021/10/08 09:58:21;;;;;;;12.40;4.90;;;;;;;13.75;92.79;97646.59;5023876;28;20057;-66
2021/10/08 10:01:04;;;;;;;15.48;6.65;;;;;;;13.64;92.59;97646.44;5023907;28;20427;-65
2021/10/08 10:03:31;;;;;;;30.45;11.57;;;;;;;13.32;94.91;97584.75;5022683;28;20057;-65
2021/10/08 10:06:00;;;;;;;50.33;17.23;;;;;;;13.59;95.08;97628.06;5023631;28;20539;-69
2021/10/08 10:08:27;;;;;;;34.00;12.90;;;;;;;13.48;95.62;97618.75;5022853;28;20311;-66
2021/10/08 10:10:55;;;;;;;27.27;8.82;;;;;;;13.50;96.11;97610.03;5020428;28;20049;-66
2021/10/08 10:13:22;;;;;;;73.68;20.52;;;;;;;13.46;97.11;97609.19;5024204;28;20784;-66
2021/10/08 10:15:49;;;;;;;16.63;7.60;;;;;;;13.19;97.68;97558.31;5025327;28;20175;-67
2021/10/08 10:18:20;;;;;;;10.88;5.10;;;;;;;13.45;98.12;97600.00;5025383;28;20049;-67
2021/10/08 10:20:52;;;;;;;7.13;3.65;;;;;;;13.43;99.32;97610.75;5024789;28;20112;-67
2021/10/08 10:23:21;;;;;;;5.15;3.40;;;;;;;13.37;99.65;97617.00;5025354;28;20081;-66
2021/10/08 10:25:50;;;;;;;6.95;3.65;;;;;;;13.51;99.17;97615.22;5025052;28;20073;-68
2021/10/08 10:28:19;;;;;;;4.82;2.63;;;;;;;13.57;99.37;97619.28;5025352;28;20049;-67
2021/10/08 10:30:49;;;;;;;2.53;2.20;;;;;;;13.51;98.65;97606.06;5024400;28;20168;-67
2021/10/08 10:33:23;;;;;;;3.35;2.83;;;;;;;11.09;99.37;97230.63;5025181;28;20095;-66
2021/10/08 10:35:53;;;;;;;4.82;2.85;;;;;;;13.24;98.95;97599.72;5023843;28;20060;-67
2021/10/08 10:38:39;;;;;;;5.72;3.03;;;;;;;13.39;99.01;97607.09;5024809;28;20527;-66
2021/10/08 10:41:09;;;;;;;6.82;3.42;;;;;;;13.40;99.42;97600.34;5023225;28;20064;-67
2021/10/08 10:43:40;;;;;;;7.40;3.45;;;;;;;13.43;100.00;97602.41;5025354;28;20057;-66
2021/10/08 10:52:03;;;;;;;7.82;3.75;;;;;;;13.31;98.75;97605.38;5004804;28;20209;-65
2021/10/08 10:54:41;;;;;;;10.98;5.55;;;;;;;13.17;98.23;97610.72;5003102;28;20115;-64
2021/10/08 10:57:17;;;;;;;10.07;5.32;;;;;;;12.86;99.85;97574.84;5004427;28;20054;-66
2021/10/08 10:59:44;;;;;;;7.00;3.55;;;;;;;12.80;100.00;97573.53;5004348;28;20505;-65
2021/10/08 11:02:12;;;;;;;6.18;3.60;;;;;;;13.04;100.00;97605.75;5005497;28;20058;-65
2021/10/08 11:04:43;;;;;;;7.53;4.80;;;;;;;12.89;100.00;97585.19;5004901;28;20049;-64
2021/10/08 11:07:12;;;;;;;6.22;4.20;;;;;;;13.09;100.00;97603.44;5004333;28;20062;-63
2021/10/08 11:09:44;;;;;;;11.73;3.95;;;;;;;13.14;100.00;97611.47;5003649;28;20058;-65
2021/10/08 11:12:36;;;;;;;8.05;3.60;;;;;;;13.04;100.00;97606.53;5002837;28;20056;-64
2021/10/08 11:15:19;;;;;;;6.88;4.38;;;;;;;13.03;100.00;97602.16;5017899;28;20542;-62
2021/10/08 11:18:03;;;;;;;6.28;3.28;;;;;;;12.12;100.00;97481.03;5020921;28;20049;-64
2021/10/08 11:20:31;;;;;;;22.00;11.15;;;;;;;12.77;100.00;97596.50;5023056;28;20060;-63
2021/10/08 11:22:59;;;;;;;37.72;14.48;;;;;;;12.75;100.00;97596.09;5024310;28;20088;-61
2021/10/08 11:25:34;;;;;;;20.33;10.75;;;;;;;12.69;100.00;97563.41;5022331;28;20061;-63
2021/10/08 11:28:02;;;;;;;23.48;13.38;;;;;;;12.37;100.00;97554.50;5022984;28;20056;-62
2021/10/08 11:30:30;;;;;;;21.65;11.55;;;;;;;12.70;100.00;97578.91;5008365;28;20049;-64
2021/10/08 11:32:58;;;;;;;8.25;4.60;;;;;;;12.55;100.00;97547.28;5020407;28;20052;-63
2021/10/08 11:35:30;;;;;;;8.95;3.70;;;;;;;11.87;100.00;97440.94;5021340;28;20536;-62
2021/10/08 11:37:57;;;;;;;4.72;3.33;;;;;;;12.39;100.00;97502.16;5022434;28;20049;-62
2021/10/08 11:40:33;;;;;;;8.48;4.45;;;;;;;12.89;100.00;97587.97;5022219;28;20060;-62